createdAt,value
2023-05-02T00:00:53.355Z,37.62
2023-05-02T00:01:53.423Z,37.59
2023-05-02T00:02:53.722Z,37.62
2023-05-02T00:03:53.544Z,37.55
2023-05-02T00:04:53.545Z,37.56
2023-05-02T00:05:53.749Z,37.56
2023-05-02T00:06:53.684Z,37.58
2023-05-02T00:07:53.639Z,37.54
2023-05-02T00:08:53.703Z,37.55
2023-05-02T00:09:53.765Z,37.56
2023-05-02T00:10:54.245Z,37.55
2023-05-02T00:11:53.867Z,37.59
2023-05-02T00:12:54.003Z,37.58
2023-05-02T00:13:53.942Z,37.58
2023-05-02T00:14:54.015Z,37.55
2023-05-02T00:15:54.236Z,37.56
2023-05-02T00:16:54.129Z,37.59
2023-05-02T00:17:54.164Z,37.62
2023-05-02T00:18:54.176Z,37.58
2023-05-02T00:19:54.221Z,37.60
2023-05-02T00:20:54.753Z,37.57
2023-05-02T00:21:54.305Z,37.57
2023-05-02T00:22:54.357Z,37.62
2023-05-02T00:23:54.407Z,37.62
2023-05-02T00:24:54.430Z,37.66
2023-05-02T00:25:54.741Z,37.57
2023-05-02T00:26:54.531Z,37.62
2023-05-02T00:27:54.630Z,37.59
2023-05-02T00:28:54.650Z,37.60
2023-05-02T00:29:54.672Z,37.60
2023-05-02T00:30:54.777Z,37.57
2023-05-02T00:31:54.774Z,37.58
2023-05-02T00:32:54.835Z,37.57
2023-05-02T00:33:54.863Z,37.63
2023-05-02T00:34:54.906Z,37.56
2023-05-02T00:35:55.267Z,37.57
2023-05-02T00:36:55.010Z,37.52
2023-05-02T00:37:55.082Z,37.59
2023-05-02T00:38:55.071Z,37.59
2023-05-02T00:39:55.121Z,37.56
2023-05-02T00:40:55.264Z,37.56
2023-05-02T00:41:55.164Z,37.57
2023-05-02T00:42:55.178Z,37.57
2023-05-02T00:43:55.200Z,37.57
2023-05-02T00:44:55.244Z,37.57
2023-05-02T00:45:55.775Z,37.58
2023-05-02T00:46:55.423Z,37.59
2023-05-02T00:47:55.401Z,37.56
2023-05-02T00:48:55.440Z,37.57
2023-05-02T00:49:55.496Z,37.57
2023-05-02T00:50:55.741Z,37.60
2023-05-02T00:51:56.257Z,37.57
2023-05-02T00:52:55.609Z,37.59
2023-05-02T00:53:55.653Z,37.59
2023-05-02T00:54:55.708Z,37.64
2023-05-02T00:55:56.246Z,37.57
2023-05-02T00:56:55.813Z,37.60
2023-05-02T00:57:55.865Z,37.62
2023-05-02T00:58:55.905Z,37.59
2023-05-02T00:59:55.963Z,37.55
2023-05-02T01:00:55.995Z,37.59
2023-05-02T01:01:56.091Z,37.57
2023-05-02T01:02:56.148Z,37.56
2023-05-02T01:03:56.255Z,37.59
2023-05-02T01:04:56.169Z,37.56
2023-05-02T01:05:56.245Z,37.59
2023-05-02T01:06:56.266Z,37.56
2023-05-02T01:07:56.335Z,37.60
2023-05-02T01:08:56.372Z,37.59
2023-05-02T01:09:56.484Z,37.54
2023-05-02T01:10:56.758Z,37.59
2023-05-02T01:11:56.502Z,37.53
2023-05-02T01:12:56.539Z,37.59
2023-05-02T01:13:56.607Z,37.57
2023-05-02T01:14:56.634Z,37.60
2023-05-02T01:15:56.801Z,37.59
2023-05-02T01:16:56.726Z,37.57
2023-05-02T01:17:56.878Z,37.57
2023-05-02T01:18:56.822Z,37.60
2023-05-02T01:19:56.936Z,37.56
2023-05-02T01:20:57.291Z,37.63
2023-05-02T01:21:56.946Z,37.57
2023-05-02T01:22:57.022Z,37.62
2023-05-02T01:23:57.055Z,37.61
2023-05-02T01:24:57.113Z,37.61
2023-05-02T01:25:57.277Z,37.64
2023-05-02T01:26:57.212Z,37.64
2023-05-02T01:27:57.249Z,37.60
2023-05-02T01:28:57.272Z,37.61
2023-05-02T01:29:57.404Z,37.60
2023-05-02T01:30:57.830Z,37.61
2023-05-02T01:31:57.507Z,37.56
2023-05-02T01:32:57.469Z,37.64
2023-05-02T01:33:57.494Z,37.60
2023-05-02T01:34:57.557Z,37.62
2023-05-02T01:35:57.599Z,37.59
2023-05-02T01:36:57.783Z,37.54
2023-05-02T01:37:57.707Z,37.60
2023-05-02T01:38:57.733Z,37.60
2023-05-02T01:39:57.896Z,37.56
2023-05-02T01:40:57.841Z,37.60
2023-05-02T01:41:57.905Z,37.59
2023-05-02T01:42:57.932Z,37.60
2023-05-02T01:43:57.978Z,37.61
2023-05-02T01:44:58.068Z,37.61
2023-05-02T01:45:58.079Z,37.61
2023-05-02T01:46:58.183Z,37.62
2023-05-02T01:47:58.240Z,37.59
2023-05-02T01:48:58.230Z,37.61
2023-05-02T01:49:58.499Z,37.64
2023-05-02T01:50:58.375Z,37.64
2023-05-02T01:51:58.356Z,37.60
2023-05-02T01:52:58.410Z,37.57
2023-05-02T01:53:58.458Z,37.60
2023-05-02T01:54:58.504Z,37.56
2023-05-02T01:55:58.789Z,37.58
2023-05-02T01:56:58.582Z,37.61
2023-05-02T01:57:58.624Z,37.60
2023-05-02T01:58:58.777Z,37.58
2023-05-02T01:59:58.897Z,37.59
2023-05-02T02:00:58.877Z,37.57
2023-05-02T02:01:58.865Z,37.58
2023-05-02T02:02:58.906Z,37.62
2023-05-02T02:03:58.964Z,37.54
2023-05-02T02:04:58.985Z,37.57
2023-05-02T02:05:59.379Z,37.60
2023-05-02T02:06:59.101Z,37.60
2023-05-02T02:07:59.116Z,37.60
2023-05-02T02:08:59.167Z,37.58
2023-05-02T02:09:59.465Z,37.58
2023-05-02T02:10:59.268Z,37.57
2023-05-02T02:11:59.291Z,37.58
2023-05-02T02:12:59.389Z,37.60
2023-05-02T02:13:59.424Z,37.60
2023-05-02T02:14:59.431Z,37.58
2023-05-02T02:15:59.494Z,37.58
2023-05-02T02:16:59.931Z,37.57
2023-05-02T02:17:59.631Z,37.60
2023-05-02T02:18:59.644Z,37.60
2023-05-02T02:20:00.048Z,37.60
2023-05-02T02:20:59.785Z,37.52
2023-05-02T02:21:59.775Z,37.54
2023-05-02T02:22:59.860Z,37.55
2023-05-02T02:23:59.898Z,37.53
2023-05-02T02:24:59.963Z,37.54
2023-05-02T02:25:59.990Z,37.60
2023-05-02T02:27:00.052Z,37.52
2023-05-02T02:28:00.138Z,37.54
2023-05-02T02:29:00.139Z,37.53
2023-05-02T02:30:00.485Z,37.57
2023-05-02T02:31:00.256Z,37.54
2023-05-02T02:32:00.298Z,37.56
2023-05-02T02:33:00.398Z,37.53
2023-05-02T02:34:00.398Z,37.57
2023-05-02T02:35:00.413Z,37.54
2023-05-02T02:36:00.461Z,37.52
2023-05-02T02:37:00.764Z,37.54
2023-05-02T02:38:00.557Z,37.58
2023-05-02T02:39:00.582Z,37.54
2023-05-02T02:40:01.073Z,37.53
2023-05-02T02:41:00.655Z,37.54
2023-05-02T02:42:00.737Z,37.58
2023-05-02T02:43:00.728Z,37.54
2023-05-02T02:44:00.753Z,37.55
2023-05-02T02:45:00.826Z,37.53
2023-05-02T02:46:00.922Z,37.54
2023-05-02T02:47:00.927Z,37.52
2023-05-02T02:48:00.985Z,37.52
2023-05-02T02:49:01.029Z,37.53
2023-05-02T02:50:01.316Z,37.53
2023-05-02T02:51:01.111Z,37.53
2023-05-02T02:52:01.144Z,37.55
2023-05-02T02:53:01.199Z,37.54
2023-05-02T02:54:01.246Z,37.54
2023-05-02T02:55:01.274Z,37.54
2023-05-02T02:56:01.328Z,37.58
2023-05-02T02:57:01.373Z,37.55
2023-05-02T02:58:01.399Z,37.55
2023-05-02T02:59:01.448Z,37.59
2023-05-02T03:00:01.710Z,37.59
2023-05-02T03:01:01.505Z,37.58
2023-05-02T03:02:01.697Z,37.57
2023-05-02T03:03:01.829Z,37.54
2023-05-02T03:04:01.707Z,37.54
2023-05-02T03:05:01.674Z,37.53
2023-05-02T03:06:01.735Z,37.53
2023-05-02T03:07:01.788Z,37.52
2023-05-02T03:08:01.851Z,37.54
2023-05-02T03:09:01.895Z,37.54
2023-05-02T03:10:02.160Z,37.50
2023-05-02T03:11:01.971Z,37.52
2023-05-02T03:12:02.011Z,37.49
2023-05-02T03:13:02.045Z,37.52
2023-05-02T03:14:02.081Z,37.53
2023-05-02T03:15:02.170Z,37.54
2023-05-02T03:16:02.288Z,37.54
2023-05-02T03:17:02.234Z,37.55
2023-05-02T03:18:02.295Z,37.55
2023-05-02T03:19:02.308Z,37.54
2023-05-02T03:20:02.501Z,37.58
2023-05-02T03:21:02.469Z,37.55
2023-05-02T03:22:02.782Z,37.50
2023-05-02T03:23:02.516Z,37.57
2023-05-02T03:24:02.526Z,37.55
2023-05-02T03:25:02.592Z,37.57
2023-05-02T03:26:02.624Z,37.57
2023-05-02T03:27:02.674Z,37.57
2023-05-02T03:28:02.724Z,37.52
2023-05-02T03:29:02.776Z,37.57
2023-05-02T03:30:02.975Z,37.57
2023-05-02T03:31:02.866Z,37.58
2023-05-02T03:32:03.068Z,37.57
2023-05-02T03:33:02.991Z,37.59
2023-05-02T03:34:03.001Z,37.54
2023-05-02T03:35:03.038Z,37.52
2023-05-02T03:36:03.128Z,37.54
2023-05-02T03:37:03.171Z,37.54
2023-05-02T03:38:03.207Z,37.55
2023-05-02T03:39:03.250Z,37.53
2023-05-02T03:40:03.403Z,37.53
2023-05-02T03:41:03.362Z,37.50
2023-05-02T03:42:03.791Z,37.52
2023-05-02T03:43:03.449Z,37.52
2023-05-02T03:44:03.485Z,37.53
2023-05-02T03:45:03.540Z,37.53
2023-05-02T03:46:03.613Z,37.54
2023-05-02T03:47:03.722Z,37.55
2023-05-02T03:48:03.711Z,37.50
2023-05-02T03:49:03.700Z,37.49
2023-05-02T03:50:03.781Z,37.55
2023-05-02T03:51:03.812Z,37.54
2023-05-02T03:52:03.881Z,37.50
2023-05-02T03:53:03.928Z,37.51
2023-05-02T03:54:03.921Z,37.52
2023-05-02T03:55:03.992Z,37.55
2023-05-02T03:56:04.011Z,37.52
2023-05-02T03:57:04.053Z,37.51
2023-05-02T03:58:04.125Z,37.50
2023-05-02T03:59:04.175Z,37.50
2023-05-02T04:00:04.235Z,37.50
2023-05-02T04:01:04.258Z,37.54
2023-05-02T04:02:04.303Z,37.55
2023-05-02T04:03:04.352Z,37.51
2023-05-02T04:04:04.424Z,37.55
2023-05-02T04:05:04.425Z,37.52
2023-05-02T04:06:04.467Z,37.51
2023-05-02T04:07:04.540Z,37.51
2023-05-02T04:08:04.547Z,37.50
2023-05-02T04:09:04.624Z,37.50
2023-05-02T04:10:04.702Z,37.51
2023-05-02T04:11:04.716Z,37.51
2023-05-02T04:12:04.749Z,37.52
2023-05-02T04:13:04.776Z,37.52
2023-05-02T04:14:04.832Z,37.52
2023-05-02T04:15:04.875Z,37.51
2023-05-02T04:16:04.904Z,37.51
2023-05-02T04:17:05.397Z,37.47
2023-05-02T04:18:05.024Z,37.50
2023-05-02T04:19:05.046Z,37.54
2023-05-02T04:20:05.812Z,37.51
2023-05-02T04:21:05.135Z,37.51
2023-05-02T04:22:05.191Z,37.51
2023-05-02T04:23:05.258Z,37.52
2023-05-02T04:24:05.285Z,37.52
2023-05-02T04:25:05.306Z,37.51
2023-05-02T04:26:05.357Z,37.51
2023-05-02T04:27:05.828Z,37.51
2023-05-02T04:28:05.442Z,37.50
2023-05-02T04:29:05.761Z,37.47
2023-05-02T04:30:05.508Z,37.57
2023-05-02T04:31:05.617Z,37.52
2023-05-02T04:32:05.633Z,37.51
2023-05-02T04:33:05.702Z,37.48
2023-05-02T04:34:05.700Z,37.52
2023-05-02T04:35:05.738Z,37.50
2023-05-02T04:36:05.759Z,37.47
2023-05-02T04:37:05.846Z,37.50
2023-05-02T04:38:05.849Z,37.45
2023-05-02T04:39:05.899Z,37.54
2023-05-02T04:40:05.954Z,37.50
2023-05-02T04:41:09.141Z,37.54
2023-05-02T04:42:05.996Z,37.50
2023-05-02T04:43:06.116Z,37.48
2023-05-02T04:44:05.958Z,37.51
2023-05-02T04:45:06.010Z,37.50
2023-05-02T04:46:05.994Z,37.54
2023-05-02T04:47:05.970Z,37.47
2023-05-02T04:48:06.034Z,37.53
2023-05-02T04:49:05.965Z,37.48
2023-05-02T04:50:05.924Z,37.52
2023-05-02T04:51:05.959Z,37.51
2023-05-02T04:52:05.926Z,37.46
2023-05-02T04:53:05.946Z,37.53
2023-05-02T04:54:05.916Z,37.51
2023-05-02T04:55:05.912Z,37.51
2023-05-02T04:56:05.934Z,37.48
2023-05-02T04:57:05.920Z,37.50
2023-05-02T04:58:05.919Z,37.47
2023-05-02T04:59:05.899Z,37.50
2023-05-02T05:00:05.890Z,37.52
2023-05-02T05:01:05.874Z,37.46
2023-05-02T05:02:05.962Z,37.50
2023-05-02T05:03:05.963Z,37.63
2023-05-02T05:04:05.931Z,39.90
2023-05-02T05:05:05.910Z,40.19
2023-05-02T05:06:05.904Z,40.79
2023-05-02T05:07:05.827Z,41.41
2023-05-02T05:08:05.865Z,40.32
2023-05-02T05:09:05.829Z,39.59
2023-05-02T05:10:05.824Z,39.54
2023-05-02T05:11:05.797Z,39.52
2023-05-02T05:12:05.835Z,39.65
2023-05-02T05:13:05.806Z,39.74
2023-05-02T05:14:05.800Z,39.71
2023-05-02T05:15:05.792Z,39.69
2023-05-02T05:16:05.823Z,39.67
2023-05-02T05:17:05.877Z,39.72
2023-05-02T05:18:05.881Z,39.68
2023-05-02T05:19:05.750Z,39.65
2023-05-02T05:20:06.347Z,39.69
2023-05-02T05:21:05.764Z,39.69
2023-05-02T05:22:05.719Z,39.63
2023-05-02T05:23:05.733Z,39.63
2023-05-02T05:24:05.774Z,39.66
2023-05-02T05:25:05.793Z,39.64
2023-05-02T05:26:05.790Z,39.64
2023-05-02T05:27:05.839Z,39.67
2023-05-02T05:28:05.836Z,39.64
2023-05-02T05:29:05.872Z,39.62
2023-05-02T05:30:05.934Z,39.64
2023-05-02T05:31:05.985Z,39.56
2023-05-02T05:32:06.118Z,39.56
2023-05-02T05:33:06.009Z,39.61
2023-05-02T05:34:06.030Z,39.60
2023-05-02T05:35:06.011Z,39.60
2023-05-02T05:36:05.991Z,39.69
2023-05-02T05:37:06.052Z,39.69
2023-05-02T05:38:06.015Z,39.63
2023-05-02T05:39:06.048Z,39.65
2023-05-02T05:40:06.078Z,39.65
2023-05-02T05:41:06.066Z,39.63
2023-05-02T05:42:06.123Z,39.68
2023-05-02T05:43:06.155Z,39.76
2023-05-02T05:44:06.165Z,39.75
2023-05-02T05:45:06.189Z,39.75
2023-05-02T05:46:06.259Z,40.47
2023-05-02T05:47:06.370Z,40.30
2023-05-02T05:48:06.313Z,40.80
2023-05-02T05:49:06.295Z,41.05
2023-05-02T05:50:06.320Z,41.32
2023-05-02T05:51:06.358Z,41.44
2023-05-02T05:52:06.382Z,41.17
2023-05-02T05:53:06.449Z,41.18
2023-05-02T05:54:06.455Z,41.90
2023-05-02T05:55:06.465Z,42.06
2023-05-02T05:56:06.489Z,43.06
2023-05-02T05:57:06.480Z,41.82
2023-05-02T05:58:06.508Z,42.22
2023-05-02T05:59:06.553Z,42.71
2023-05-02T06:00:06.566Z,41.87
2023-05-02T06:01:06.559Z,42.05
2023-05-02T06:02:06.608Z,42.97
2023-05-02T06:03:08.145Z,42.82
2023-05-02T06:04:06.715Z,43.21
2023-05-02T06:05:06.664Z,43.27
2023-05-02T06:06:06.646Z,42.94
2023-05-02T06:07:06.557Z,42.89
2023-05-02T06:08:06.556Z,43.09
2023-05-02T06:09:06.530Z,44.15
2023-05-02T06:10:06.518Z,44.02
2023-05-02T06:11:06.524Z,43.86
2023-05-02T06:12:06.531Z,43.94
2023-05-02T06:13:06.518Z,44.53
2023-05-02T06:14:06.486Z,44.14
2023-05-02T06:15:06.480Z,45.06
2023-05-02T06:16:06.527Z,44.87
2023-05-02T06:17:06.482Z,44.59
2023-05-02T06:18:06.498Z,44.50
2023-05-02T06:19:06.437Z,44.62
2023-05-02T06:20:06.480Z,44.83
2023-05-02T06:21:06.493Z,44.88
2023-05-02T06:22:06.429Z,45.07
2023-05-02T06:23:06.602Z,44.98
2023-05-02T06:24:06.962Z,45.14
2023-05-02T06:25:06.406Z,44.99
2023-05-02T06:26:06.424Z,44.86
2023-05-02T06:27:06.403Z,45.02
2023-05-02T06:28:06.421Z,45.11
2023-05-02T06:29:06.382Z,45.12
2023-05-02T06:30:06.388Z,45.10
2023-05-02T06:31:06.500Z,45.44
2023-05-02T06:32:06.580Z,45.52
2023-05-02T06:33:06.491Z,45.54
2023-05-02T06:34:06.374Z,45.45
2023-05-02T06:35:06.333Z,45.51
2023-05-02T06:36:06.359Z,45.45
2023-05-02T06:37:06.339Z,45.75
2023-05-02T06:38:06.370Z,45.66
2023-05-02T06:39:06.351Z,45.74
2023-05-02T06:40:06.331Z,45.79
2023-05-02T06:41:06.322Z,45.86
2023-05-02T06:42:06.340Z,46.00
2023-05-02T06:43:06.295Z,46.00
2023-05-02T06:44:06.289Z,46.08
2023-05-02T06:45:06.308Z,46.28
2023-05-02T06:46:06.298Z,46.17
2023-05-02T06:47:06.332Z,46.30
2023-05-02T06:48:06.306Z,46.14
2023-05-02T06:49:06.274Z,46.09
2023-05-02T06:50:06.239Z,46.07
2023-05-02T06:51:06.257Z,46.10
2023-05-02T06:52:06.272Z,46.56
2023-05-02T06:53:06.220Z,46.80
2023-05-02T06:54:06.201Z,46.61
2023-05-02T06:55:06.232Z,46.44
2023-05-02T06:56:06.190Z,46.08
2023-05-02T06:57:06.232Z,45.76
2023-05-02T06:58:06.187Z,45.43
2023-05-02T06:59:06.187Z,45.46
2023-05-02T07:00:06.230Z,45.28
2023-05-02T07:01:06.216Z,45.11
2023-05-02T07:02:06.139Z,45.04
2023-05-02T07:03:06.214Z,44.97
2023-05-02T07:04:06.198Z,44.99
2023-05-02T07:05:06.183Z,45.01
2023-05-02T07:06:06.143Z,44.95
2023-05-02T07:07:06.116Z,45.01
2023-05-02T07:08:06.105Z,45.01
2023-05-02T07:09:06.100Z,45.03
2023-05-02T07:10:06.132Z,44.97
2023-05-02T07:11:06.168Z,44.97
2023-05-02T07:12:07.038Z,44.97
2023-05-02T07:13:06.825Z,44.96
2023-05-02T07:14:06.246Z,44.94
2023-05-02T07:15:06.258Z,44.92
2023-05-02T07:16:06.347Z,44.91
2023-05-02T07:17:06.424Z,44.90
2023-05-02T07:18:06.436Z,44.94
2023-05-02T07:19:06.381Z,44.98
2023-05-02T07:20:06.431Z,44.97
2023-05-02T07:21:06.452Z,44.92
2023-05-02T07:22:06.511Z,45.07
2023-05-02T07:23:06.557Z,45.10
2023-05-02T07:24:06.595Z,45.16
2023-05-02T07:25:06.615Z,45.05
2023-05-02T07:26:06.658Z,45.03
2023-05-02T07:27:06.670Z,44.97
2023-05-02T07:28:06.696Z,44.94
2023-05-02T07:29:06.716Z,44.97
2023-05-02T07:30:06.783Z,45.01
2023-05-02T07:31:06.812Z,44.96
2023-05-02T07:32:06.864Z,45.17
2023-05-02T07:33:06.849Z,45.06
2023-05-02T07:34:06.886Z,44.96
2023-05-02T07:35:06.911Z,45.14
2023-05-02T07:36:06.904Z,44.96
2023-05-02T07:37:06.950Z,44.93
2023-05-02T07:38:06.965Z,44.91
2023-05-02T07:39:06.955Z,44.91
2023-05-02T07:40:07.013Z,44.95
2023-05-02T07:41:07.044Z,44.89
2023-05-02T07:42:07.047Z,44.91
2023-05-02T07:43:07.940Z,44.85
2023-05-02T07:44:07.057Z,44.95
2023-05-02T07:45:07.111Z,44.94
2023-05-02T07:46:07.211Z,45.05
2023-05-02T07:47:07.117Z,44.83
2023-05-02T07:48:07.219Z,44.82
2023-05-02T07:49:07.204Z,44.39
2023-05-02T07:50:07.620Z,44.40
2023-05-02T07:51:07.234Z,43.29
2023-05-02T07:52:07.323Z,43.70
2023-05-02T07:53:07.331Z,43.90
2023-05-02T07:54:07.395Z,43.37
2023-05-02T07:55:07.467Z,41.63
2023-05-02T07:56:07.461Z,40.28
2023-05-02T07:57:07.516Z,40.82
2023-05-02T07:58:07.546Z,41.18
2023-05-02T07:59:07.541Z,41.49
2023-05-02T08:00:07.598Z,42.04
2023-05-02T08:01:07.633Z,42.58
2023-05-02T08:02:07.696Z,42.98
2023-05-02T08:03:07.996Z,43.17
2023-05-02T08:04:08.030Z,43.39
2023-05-02T08:05:07.975Z,43.49
2023-05-02T08:06:07.817Z,43.55
2023-05-02T08:07:07.839Z,43.64
2023-05-02T08:08:07.894Z,43.65
2023-05-02T08:09:07.918Z,43.82
2023-05-02T08:10:07.923Z,43.89
2023-05-02T08:11:07.940Z,43.79
2023-05-02T08:12:07.985Z,43.74
2023-05-02T08:13:08.399Z,43.86
2023-05-02T08:14:08.002Z,43.74
2023-05-02T08:15:08.037Z,43.69
2023-05-02T08:16:08.102Z,43.62
2023-05-02T08:17:08.072Z,43.56
2023-05-02T08:18:08.147Z,43.47
2023-05-02T08:19:08.160Z,43.44
2023-05-02T08:20:08.206Z,43.48
2023-05-02T08:21:08.249Z,43.43
2023-05-02T08:22:08.314Z,43.39
2023-05-02T08:23:08.352Z,43.37
2023-05-02T08:24:08.396Z,43.36
2023-05-02T08:25:08.455Z,43.38
2023-05-02T08:26:08.530Z,43.48
2023-05-02T08:27:08.564Z,43.39
2023-05-02T08:28:08.617Z,43.43
2023-05-02T08:29:08.629Z,43.37
2023-05-02T08:30:09.123Z,43.39
2023-05-02T08:31:08.779Z,43.36
2023-05-02T08:32:08.803Z,43.43
2023-05-02T08:33:08.954Z,43.41
2023-05-02T08:34:08.834Z,43.43
2023-05-02T08:35:08.861Z,43.45
2023-05-02T08:36:08.917Z,43.48
2023-05-02T08:37:08.909Z,43.41
2023-05-02T08:38:08.971Z,43.37
2023-05-02T08:39:08.965Z,43.42
2023-05-02T08:40:08.976Z,43.77
2023-05-02T08:41:09.018Z,43.82
2023-05-02T08:42:09.033Z,42.89
2023-05-02T08:43:09.409Z,42.37
2023-05-02T08:44:09.135Z,42.47
2023-05-02T08:45:09.188Z,42.38
2023-05-02T08:46:09.232Z,42.16
2023-05-02T08:47:09.339Z,41.74
2023-05-02T08:48:09.425Z,42.39
2023-05-02T08:49:09.395Z,41.90
2023-05-02T08:50:09.477Z,40.83
2023-05-02T08:51:09.438Z,41.59
2023-05-02T08:52:09.483Z,41.53
2023-05-02T08:53:09.486Z,41.95
2023-05-02T08:54:09.554Z,41.73
2023-05-02T08:55:09.552Z,42.01
2023-05-02T08:56:09.543Z,41.89
2023-05-02T08:57:09.562Z,42.01
2023-05-02T08:58:09.564Z,42.32
2023-05-02T08:59:09.613Z,42.60
2023-05-02T09:00:09.614Z,42.88
2023-05-02T09:01:09.652Z,42.92
2023-05-02T09:02:09.622Z,43.36
2023-05-02T09:03:09.648Z,43.98
2023-05-02T09:04:09.728Z,43.86
2023-05-02T09:05:09.712Z,44.10
2023-05-02T09:06:09.846Z,44.00
2023-05-02T09:07:10.909Z,43.97
2023-05-02T09:08:09.869Z,44.09
2023-05-02T09:09:09.911Z,44.25
2023-05-02T09:10:09.966Z,44.21
2023-05-02T09:11:09.947Z,44.24
2023-05-02T09:12:10.260Z,44.24
2023-05-02T09:13:10.039Z,44.40
2023-05-02T09:14:10.017Z,44.73
2023-05-02T09:15:10.036Z,44.48
2023-05-02T09:16:10.112Z,44.51
2023-05-02T09:17:10.202Z,44.42
2023-05-02T09:18:10.085Z,44.57
2023-05-02T09:19:10.111Z,44.59
2023-05-02T09:20:10.087Z,45.22
2023-05-02T09:21:10.130Z,44.87
2023-05-02T09:22:10.141Z,44.80
2023-05-02T09:23:10.155Z,44.87
2023-05-02T09:24:10.150Z,44.91
2023-05-02T09:25:10.182Z,44.91
2023-05-02T09:26:10.206Z,44.83
2023-05-02T09:27:10.216Z,44.96
2023-05-02T09:28:10.245Z,45.00
2023-05-02T09:29:10.257Z,45.12
2023-05-02T09:30:10.265Z,45.32
2023-05-02T09:31:10.290Z,45.27
2023-05-02T09:32:10.402Z,45.22
2023-05-02T09:33:10.438Z,45.23
2023-05-02T09:34:10.343Z,45.30
2023-05-02T09:35:10.358Z,45.37
2023-05-02T09:36:10.425Z,45.43
2023-05-02T09:37:10.442Z,45.50
2023-05-02T09:38:11.092Z,45.55
2023-05-02T09:39:10.492Z,45.70
2023-05-02T09:40:10.502Z,45.67
2023-05-02T09:41:10.540Z,46.02
2023-05-02T09:42:10.575Z,45.92
2023-05-02T09:43:10.636Z,46.12
2023-05-02T09:44:10.683Z,45.96
2023-05-02T09:45:10.748Z,46.02
2023-05-02T09:46:10.795Z,46.68
2023-05-02T09:47:10.841Z,46.30
2023-05-02T09:48:10.968Z,46.01
2023-05-02T09:49:10.893Z,45.20
2023-05-02T09:50:10.910Z,45.07
2023-05-02T09:51:10.928Z,44.24
2023-05-02T09:52:10.994Z,43.72
2023-05-02T09:53:11.430Z,43.93
2023-05-02T09:54:10.983Z,43.69
2023-05-02T09:55:11.011Z,43.26
2023-05-02T09:56:11.060Z,42.59
2023-05-02T09:57:11.444Z,43.35
2023-05-02T09:58:11.396Z,43.56
2023-05-02T09:59:11.077Z,43.75
2023-05-02T10:00:11.236Z,43.97
2023-05-02T10:01:11.187Z,44.11
2023-05-02T10:02:11.305Z,44.31
2023-05-02T10:03:11.511Z,44.63
2023-05-02T10:04:11.223Z,44.81
2023-05-02T10:05:11.197Z,44.82
2023-05-02T10:06:11.281Z,44.92
2023-05-02T10:07:11.240Z,45.10
2023-05-02T10:08:11.404Z,45.23
2023-05-02T10:09:11.272Z,45.33
2023-05-02T10:10:11.285Z,45.38
2023-05-02T10:11:11.333Z,45.31
2023-05-02T10:12:11.411Z,45.43
2023-05-02T10:13:11.438Z,45.71
2023-05-02T10:14:11.457Z,45.81
2023-05-02T10:15:11.507Z,45.72
2023-05-02T10:16:11.608Z,45.83
2023-05-02T10:17:11.618Z,46.07
2023-05-02T10:18:11.686Z,46.14
2023-05-02T10:19:11.725Z,46.11
2023-05-02T10:20:11.746Z,46.20
2023-05-02T10:21:11.829Z,46.22
2023-05-02T10:22:11.825Z,46.64
2023-05-02T10:23:11.856Z,46.46
2023-05-02T10:24:11.960Z,46.41
2023-05-02T10:25:11.979Z,46.43
2023-05-02T10:26:12.042Z,46.62
2023-05-02T10:27:12.084Z,46.63
2023-05-02T10:28:12.140Z,46.57
2023-05-02T10:29:12.187Z,46.61
2023-05-02T10:30:12.227Z,46.62
2023-05-02T10:31:12.279Z,46.61
2023-05-02T10:32:12.300Z,46.71
2023-05-02T10:33:12.333Z,46.75
2023-05-02T10:34:12.355Z,46.79
2023-05-02T10:35:12.406Z,46.85
2023-05-02T10:36:12.461Z,47.04
2023-05-02T10:37:12.494Z,46.97
2023-05-02T10:38:12.486Z,47.12
2023-05-02T10:39:12.503Z,47.39
2023-05-02T10:40:12.636Z,46.74
2023-05-02T10:41:12.614Z,46.89
2023-05-02T10:42:12.667Z,45.73
2023-05-02T10:43:12.737Z,45.81
2023-05-02T10:44:12.761Z,44.54
2023-05-02T10:45:12.784Z,44.83
2023-05-02T10:46:12.914Z,45.02
2023-05-02T10:47:12.894Z,41.03
2023-05-02T10:48:13.020Z,42.02
2023-05-02T10:49:12.916Z,39.86
2023-05-02T10:50:12.935Z,40.68
2023-05-02T10:51:12.966Z,41.07
2023-05-02T10:52:12.976Z,41.35
2023-05-02T10:53:13.020Z,41.63
2023-05-02T10:54:12.987Z,42.23
2023-05-02T10:55:14.027Z,42.29
2023-05-02T10:56:13.056Z,43.05
2023-05-02T10:57:12.990Z,43.61
2023-05-02T10:58:13.470Z,44.12
2023-05-02T10:59:13.008Z,43.86
2023-05-02T11:00:12.961Z,43.64
2023-05-02T11:01:13.004Z,43.72
2023-05-02T11:02:13.022Z,43.30
2023-05-02T11:03:13.469Z,43.28
2023-05-02T11:04:12.951Z,43.49
2023-05-02T11:05:12.956Z,43.24
2023-05-02T11:06:12.949Z,43.30
2023-05-02T11:07:12.902Z,43.16
2023-05-02T11:08:12.958Z,43.21
2023-05-02T11:09:12.983Z,43.17
2023-05-02T11:10:12.993Z,42.94
2023-05-02T11:11:13.043Z,43.04
2023-05-02T11:12:13.120Z,42.96
2023-05-02T11:13:13.144Z,42.94
2023-05-02T11:14:14.351Z,42.86
2023-05-02T11:15:13.186Z,42.85
2023-05-02T11:16:13.232Z,42.84
2023-05-02T11:17:13.214Z,42.88
2023-05-02T11:18:13.591Z,42.90
2023-05-02T11:19:13.258Z,42.83
2023-05-02T11:20:13.330Z,42.75
2023-05-02T11:21:13.358Z,42.75
2023-05-02T11:22:13.932Z,42.90
2023-05-02T11:23:13.434Z,43.18
2023-05-02T11:24:13.390Z,43.32
2023-05-02T11:25:13.381Z,43.24
2023-05-02T11:26:13.414Z,43.20
2023-05-02T11:27:13.419Z,43.08
2023-05-02T11:28:13.471Z,43.15
2023-05-02T11:29:13.463Z,43.45
2023-05-02T11:30:13.551Z,43.73
2023-05-02T11:31:13.485Z,43.81
2023-05-02T11:32:13.572Z,43.91
2023-05-02T11:33:13.599Z,43.85
2023-05-02T11:34:13.587Z,43.84
2023-05-02T11:35:13.557Z,43.90
2023-05-02T11:36:13.589Z,44.31
2023-05-02T11:37:13.632Z,42.30
2023-05-02T11:38:13.954Z,39.33
2023-05-02T11:39:13.819Z,39.04
2023-05-02T11:40:13.827Z,36.74
2023-05-02T11:41:13.897Z,35.88
2023-05-02T11:42:13.808Z,35.56
2023-05-02T11:43:13.861Z,35.45
2023-05-02T11:44:13.858Z,35.55
2023-05-02T11:45:13.875Z,35.46
2023-05-02T11:46:13.975Z,35.45
2023-05-02T11:47:13.999Z,34.84
2023-05-02T11:48:14.036Z,35.42
2023-05-02T11:49:15.025Z,36.71
2023-05-02T11:50:14.118Z,36.43
2023-05-02T11:51:14.209Z,36.43
2023-05-02T11:52:14.213Z,36.51
2023-05-02T11:53:14.254Z,37.34
2023-05-02T11:54:14.302Z,37.39
2023-05-02T11:55:14.372Z,37.64
2023-05-02T11:56:14.430Z,38.22
2023-05-02T11:57:14.472Z,36.88
2023-05-02T11:58:14.496Z,36.84
2023-05-02T11:59:14.572Z,36.46
2023-05-02T12:00:14.621Z,36.85
2023-05-02T12:01:14.943Z,37.52
2023-05-02T12:02:14.733Z,37.46
2023-05-02T12:03:14.889Z,38.12
2023-05-02T12:04:14.788Z,37.36
2023-05-02T12:05:14.890Z,37.55
2023-05-02T12:06:15.271Z,37.81
2023-05-02T12:07:14.858Z,37.72
2023-05-02T12:08:14.834Z,37.48
2023-05-02T12:09:14.902Z,37.22
2023-05-02T12:10:14.938Z,37.35
2023-05-02T12:11:14.928Z,37.37
2023-05-02T12:12:15.016Z,37.28
2023-05-02T12:13:15.037Z,37.39
2023-05-02T12:14:15.089Z,37.12
2023-05-02T12:15:15.144Z,37.50
2023-05-02T12:16:15.370Z,37.19
2023-05-02T12:17:15.250Z,37.53
2023-05-02T12:18:15.315Z,37.77
2023-05-02T12:19:15.413Z,37.85
2023-05-02T12:20:15.418Z,37.82
2023-05-02T12:21:15.479Z,38.23
2023-05-02T12:22:15.530Z,38.27
2023-05-02T12:23:16.016Z,37.76
2023-05-02T12:24:15.606Z,38.61
2023-05-02T12:25:15.638Z,38.17
2023-05-02T12:26:15.708Z,39.14
2023-05-02T12:27:15.732Z,39.94
2023-05-02T12:28:15.803Z,39.40
2023-05-02T12:29:15.807Z,39.36
2023-05-02T12:30:15.822Z,39.53
2023-05-02T12:31:15.909Z,39.20
2023-05-02T12:32:15.878Z,39.18
2023-05-02T12:33:15.943Z,39.45
2023-05-02T12:34:15.916Z,39.16
2023-05-02T12:35:15.958Z,39.14
2023-05-02T12:36:16.034Z,39.22
2023-05-02T12:37:16.058Z,39.20
2023-05-02T12:38:16.102Z,38.94
2023-05-02T12:39:16.486Z,38.55
2023-05-02T12:40:16.143Z,38.52
2023-05-02T12:41:16.186Z,38.53
2023-05-02T12:42:16.238Z,38.52
2023-05-02T12:43:16.283Z,38.45
2023-05-02T12:44:16.301Z,38.18
2023-05-02T12:45:16.305Z,38.04
2023-05-02T12:46:16.326Z,37.94
2023-05-02T12:47:16.396Z,37.85
2023-05-02T12:48:16.375Z,37.72
2023-05-02T12:49:16.401Z,37.68
2023-05-02T12:50:16.414Z,37.89
2023-05-02T12:51:16.413Z,38.13
2023-05-02T12:52:16.441Z,38.06
2023-05-02T12:53:16.478Z,38.06